createdAt,value
2022-07-27T00:00:02.847Z,35.8
2022-07-27T00:02:02.208Z,35.7
2022-07-27T00:04:02.264Z,35.7
2022-07-27T00:06:04.414Z,35.7
2022-07-27T00:08:02.762Z,35.6
2022-07-27T00:10:02.189Z,35.6
2022-07-27T00:12:02.777Z,35.6
2022-07-27T00:14:02.274Z,35.5
2022-07-27T00:16:03.440Z,35.4
2022-07-27T00:18:03.409Z,35.4
2022-07-27T00:20:02.973Z,35.4
2022-07-27T00:22:02.163Z,35.3
2022-07-27T00:24:02.725Z,35.3
2022-07-27T00:26:02.741Z,35.3
2022-07-27T00:28:03.577Z,35.5
2022-07-27T00:30:03.523Z,35.6
2022-07-27T00:32:02.793Z,35.7
2022-07-27T00:34:02.869Z,35.7
2022-07-27T00:36:04.000Z,35.7
2022-07-27T00:38:02.209Z,35.6
2022-07-27T00:40:02.394Z,35.6
2022-07-27T00:42:02.312Z,35.6
2022-07-27T00:44:04.808Z,35.7
2022-07-27T00:46:04.929Z,35.7
2022-07-27T00:48:02.719Z,35.7
2022-07-27T00:50:03.562Z,35.6
2022-07-27T00:52:02.933Z,35.6
2022-07-27T00:54:02.397Z,35.6
2022-07-27T00:56:02.817Z,35.7
2022-07-27T00:58:05.331Z,35.8
2022-07-27T01:00:02.961Z,35.6
2022-07-27T01:02:02.556Z,35.6
2022-07-27T01:04:02.233Z,35.4
2022-07-27T01:06:03.452Z,35.3
2022-07-27T01:08:02.252Z,35.2
2022-07-27T01:10:02.205Z,35.1
2022-07-27T01:12:02.938Z,35.0
2022-07-27T01:14:02.203Z,34.9
2022-07-27T01:16:04.889Z,34.7
2022-07-27T01:18:02.338Z,34.6
2022-07-27T01:20:03.141Z,34.6
2022-07-27T01:22:02.171Z,34.5
2022-07-27T01:24:02.987Z,34.4
2022-07-27T01:26:03.563Z,34.5
2022-07-27T01:28:02.199Z,34.4
2022-07-27T01:30:02.985Z,34.4
2022-07-27T01:32:03.734Z,34.3
2022-07-27T01:34:04.882Z,34.3
2022-07-27T01:36:02.758Z,34.1
2022-07-27T01:38:03.185Z,34.0
2022-07-27T01:40:02.154Z,33.8
2022-07-27T01:42:03.135Z,33.7
2022-07-27T01:44:02.228Z,33.5
2022-07-27T01:46:04.461Z,33.3
2022-07-27T01:48:02.365Z,33.1
2022-07-27T01:50:02.942Z,32.9
2022-07-27T01:52:02.133Z,32.8
2022-07-27T01:54:02.326Z,32.6
2022-07-27T01:56:02.163Z,32.4
2022-07-27T01:58:06.755Z,32.3
2022-07-27T02:00:02.443Z,32.2
2022-07-27T02:02:02.260Z,32.0
2022-07-27T02:04:02.156Z,31.9
2022-07-27T02:06:03.406Z,31.7
2022-07-27T02:08:03.070Z,31.6
2022-07-27T02:10:02.132Z,31.4
2022-07-27T02:12:12.200Z,31.4
2022-07-27T02:14:02.229Z,31.4
2022-07-27T02:16:02.221Z,31.3
2022-07-27T02:18:03.508Z,31.3
2022-07-27T02:20:03.592Z,31.2
2022-07-27T02:22:02.179Z,31.1
2022-07-27T02:24:02.180Z,31.0
2022-07-27T02:26:03.010Z,30.9
2022-07-27T02:28:02.355Z,30.8
2022-07-27T02:30:02.653Z,30.7
2022-07-27T02:32:02.138Z,30.6
2022-07-27T02:34:02.896Z,30.6
2022-07-27T02:36:03.952Z,30.6
2022-07-27T02:38:02.216Z,30.6
2022-07-27T02:40:02.172Z,30.6
2022-07-27T02:42:03.307Z,30.4
2022-07-27T02:44:02.157Z,30.3
2022-07-27T02:46:02.235Z,30.2
2022-07-27T02:48:02.327Z,30.1
2022-07-27T02:50:02.975Z,29.9
2022-07-27T02:52:03.640Z,29.9
2022-07-27T02:54:02.815Z,29.8
2022-07-27T02:56:02.292Z,29.8
2022-07-27T02:58:02.661Z,29.7
2022-07-27T03:00:02.216Z,29.6
2022-07-27T03:02:02.272Z,29.5
2022-07-27T03:04:02.508Z,29.4
2022-07-27T03:06:03.527Z,29.3
2022-07-27T03:08:03.470Z,29.2
2022-07-27T03:10:02.530Z,29.1
2022-07-27T03:12:02.966Z,28.9
2022-07-27T03:14:03.412Z,28.8
2022-07-27T03:16:02.256Z,28.7
2022-07-27T03:18:03.173Z,28.7
2022-07-27T03:20:02.893Z,28.6
2022-07-27T03:22:02.101Z,28.6
2022-07-27T03:24:02.306Z,28.6
2022-07-27T03:26:02.348Z,28.4
2022-07-27T03:28:04.267Z,28.3
2022-07-27T03:30:02.418Z,28.2
2022-07-27T03:32:02.111Z,28.2
2022-07-27T03:34:02.303Z,28.1
2022-07-27T03:36:02.202Z,28.0
2022-07-27T03:38:02.438Z,27.9
2022-07-27T03:40:02.167Z,27.8
2022-07-27T03:42:02.354Z,27.7
2022-07-27T03:44:02.823Z,27.6
2022-07-27T03:46:02.159Z,27.4
2022-07-27T03:48:02.193Z,27.3
2022-07-27T03:50:02.385Z,27.2
2022-07-27T03:52:02.094Z,27.2
2022-07-27T03:54:03.473Z,27.1
2022-07-27T03:56:02.763Z,27.0
2022-07-27T03:58:02.896Z,26.9
2022-07-27T04:00:02.399Z,26.8
2022-07-27T04:02:02.383Z,26.8
2022-07-27T04:04:02.679Z,26.7
2022-07-27T04:06:02.333Z,26.7
2022-07-27T04:08:02.721Z,26.6
2022-07-27T04:10:03.744Z,26.5
2022-07-27T04:12:02.289Z,26.3
2022-07-27T04:14:03.591Z,26.2
2022-07-27T04:16:02.131Z,26.1
2022-07-27T04:18:02.671Z,26.0
2022-07-27T04:20:03.779Z,25.8
2022-07-27T04:22:02.910Z,25.8
2022-07-27T04:24:02.476Z,25.7
2022-07-27T04:26:02.354Z,25.6
2022-07-27T04:28:02.122Z,25.5
2022-07-27T04:30:05.706Z,25.4
2022-07-27T04:32:02.193Z,25.3
2022-07-27T04:34:02.317Z,25.2
2022-07-27T04:36:02.479Z,25.2
2022-07-27T04:38:02.212Z,25.1
2022-07-27T04:40:03.319Z,25.0
2022-07-27T04:42:03.833Z,24.9
2022-07-27T04:44:02.965Z,24.9
2022-07-27T04:46:04.207Z,24.8
2022-07-27T04:48:06.645Z,24.8
2022-07-27T04:50:02.175Z,24.7
2022-07-27T04:52:02.988Z,24.6
2022-07-27T04:54:02.897Z,24.6
2022-07-27T04:56:02.325Z,24.5
2022-07-27T04:58:02.669Z,24.5
2022-07-27T05:00:03.585Z,24.4
2022-07-27T05:02:03.225Z,24.4
2022-07-27T05:04:04.711Z,24.4
2022-07-27T05:06:02.370Z,24.4
2022-07-27T05:08:03.280Z,24.8
2022-07-27T05:10:03.045Z,25.1
2022-07-27T05:12:02.158Z,25.3
2022-07-27T05:14:03.557Z,25.4
2022-07-27T05:16:02.304Z,25.6
2022-07-27T05:18:03.022Z,25.7
2022-07-27T05:20:02.503Z,25.8
2022-07-27T05:22:02.207Z,25.8
2022-07-27T05:24:02.173Z,25.9
2022-07-27T05:26:03.036Z,25.9
2022-07-27T05:28:02.503Z,25.9
2022-07-27T05:30:02.520Z,25.8
2022-07-27T05:32:02.537Z,25.7
2022-07-27T05:34:02.134Z,25.7
2022-07-27T05:36:02.732Z,25.8
2022-07-27T05:38:02.154Z,25.8
2022-07-27T05:40:02.175Z,25.8
2022-07-27T05:42:04.019Z,25.8
2022-07-27T05:44:02.698Z,25.9
2022-07-27T05:46:02.705Z,25.9
2022-07-27T05:48:02.981Z,25.9
2022-07-27T05:50:02.224Z,25.9
2022-07-27T05:52:02.086Z,25.8
2022-07-27T05:54:03.217Z,25.7
2022-07-27T05:56:02.158Z,25.7
2022-07-27T05:58:02.736Z,25.7
2022-07-27T06:00:02.488Z,25.6
2022-07-27T06:02:03.365Z,25.6
2022-07-27T06:04:02.868Z,25.4
2022-07-27T06:06:12.439Z,25.4
2022-07-27T06:08:08.210Z,25.3
2022-07-27T06:10:03.202Z,25.3
2022-07-27T06:12:02.131Z,25.3
2022-07-27T06:14:02.207Z,25.3
2022-07-27T06:16:02.704Z,25.3
2022-07-27T06:18:03.374Z,25.3
2022-07-27T06:20:03.490Z,25.4
2022-07-27T06:22:02.130Z,25.4
2022-07-27T06:24:02.148Z,25.3
2022-07-27T06:26:02.179Z,25.2
2022-07-27T06:28:03.307Z,25.2
2022-07-27T06:30:02.407Z,25.1
2022-07-27T06:32:02.264Z,24.9
2022-07-27T06:34:02.349Z,24.8
2022-07-27T06:36:02.855Z,24.8
2022-07-27T06:38:02.412Z,24.9
2022-07-27T06:40:04.533Z,24.9
2022-07-27T06:42:03.076Z,24.9
2022-07-27T06:44:02.181Z,24.8
2022-07-27T06:46:03.549Z,24.8
2022-07-27T06:48:02.137Z,24.7
2022-07-27T06:50:02.364Z,24.6
2022-07-27T06:52:02.783Z,24.6
2022-07-27T06:54:02.745Z,24.5
2022-07-27T06:56:03.786Z,24.5
2022-07-27T06:58:03.028Z,24.6
2022-07-27T07:00:02.534Z,24.6
2022-07-27T07:02:02.132Z,24.7
2022-07-27T07:04:02.939Z,24.7
2022-07-27T07:06:02.360Z,24.7
2022-07-27T07:08:02.197Z,24.6
2022-07-27T07:10:02.120Z,24.5
2022-07-27T07:12:02.798Z,24.4
2022-07-27T07:14:02.731Z,24.4
2022-07-27T07:16:02.468Z,24.3
2022-07-27T07:18:03.278Z,24.3
2022-07-27T07:20:02.385Z,24.3
2022-07-27T07:22:02.167Z,24.4
2022-07-27T07:24:02.148Z,24.3
2022-07-27T07:26:02.853Z,24.3
2022-07-27T07:28:03.598Z,24.3
2022-07-27T07:30:02.857Z,24.2
2022-07-27T07:32:02.285Z,24.1
2022-07-27T07:34:02.194Z,24.1
2022-07-27T07:36:13.912Z,23.9
2022-07-27T07:38:02.138Z,23.9
2022-07-27T07:40:25.158Z,23.8
2022-07-27T07:42:02.266Z,23.8
2022-07-27T07:44:02.161Z,23.7
2022-07-27T07:46:02.826Z,23.6
2022-07-27T07:48:02.362Z,23.6
2022-07-27T07:50:02.208Z,23.6
2022-07-27T07:52:02.391Z,23.6
2022-07-27T07:54:02.660Z,23.6
2022-07-27T07:56:02.472Z,23.6
2022-07-27T07:58:02.298Z,23.7
2022-07-27T08:00:02.642Z,23.7
2022-07-27T08:02:04.131Z,23.7
2022-07-27T08:04:02.983Z,23.7
2022-07-27T08:06:02.383Z,23.6
2022-07-27T08:08:02.150Z,23.5
2022-07-27T08:10:02.112Z,23.5
2022-07-27T08:12:02.319Z,23.5
2022-07-27T08:14:02.920Z,23.4
2022-07-27T08:16:03.014Z,23.4
2022-07-27T08:18:02.986Z,23.4
2022-07-27T08:20:03.049Z,23.3
2022-07-27T08:22:02.745Z,23.3
2022-07-27T08:24:02.724Z,23.2
2022-07-27T08:26:07.460Z,23.1
2022-07-27T08:28:02.810Z,23.1
2022-07-27T08:30:02.904Z,23.2
2022-07-27T08:32:02.727Z,23.2
2022-07-27T08:34:02.339Z,23.2
2022-07-27T08:36:02.143Z,23.2
2022-07-27T08:38:04.484Z,23.1
2022-07-27T08:42:04.183Z,23.2
2022-07-27T08:44:05.799Z,23.2
2022-07-27T08:46:02.172Z,23.2
2022-07-27T08:48:03.080Z,23.2
2022-07-27T08:50:03.360Z,23.2
2022-07-27T08:52:03.751Z,23.1
2022-07-27T08:54:02.890Z,22.9
2022-07-27T08:56:03.030Z,22.9
2022-07-27T08:58:03.724Z,22.9
2022-07-27T09:00:05.707Z,23.0
2022-07-27T09:02:03.561Z,23.1
2022-07-27T09:04:02.283Z,23.1
2022-07-27T09:06:03.586Z,23.2
2022-07-27T09:08:10.436Z,23.2
2022-07-27T09:10:04.160Z,23.2
2022-07-27T09:12:06.345Z,23.2
2022-07-27T09:14:03.569Z,23.1
2022-07-27T09:16:20.617Z,22.9
2022-07-27T09:18:17.940Z,22.6
2022-07-27T09:20:05.560Z,22.5
2022-07-27T09:22:02.163Z,22.3
2022-07-27T09:24:23.333Z,22.2
2022-07-27T09:26:29.504Z,22.1
2022-07-27T09:28:02.778Z,21.9
2022-07-27T09:30:04.761Z,21.8
2022-07-27T09:32:15.312Z,21.7
2022-07-27T09:34:03.380Z,21.6
2022-07-27T09:36:02.831Z,21.6
2022-07-27T09:38:17.274Z,21.4
2022-07-27T09:40:13.408Z,21.4
2022-07-27T09:42:03.041Z,21.3
2022-07-27T09:44:32.006Z,21.2
2022-07-27T09:46:07.043Z,21.1
2022-07-27T09:48:12.691Z,21.0
2022-07-27T09:50:20.635Z,20.9
2022-07-27T09:52:03.810Z,20.9
2022-07-27T09:54:07.974Z,20.8
2022-07-27T09:56:05.699Z,20.7
2022-07-27T09:58:02.117Z,20.7
2022-07-27T10:00:10.484Z,20.7
2022-07-27T10:02:03.220Z,20.9
2022-07-27T10:04:04.961Z,20.9
2022-07-27T10:06:03.542Z,21.0
2022-07-27T10:08:03.055Z,21.2
2022-07-27T10:10:03.642Z,21.4
2022-07-27T10:12:04.073Z,21.5
2022-07-27T10:14:02.160Z,21.6
2022-07-27T10:16:04.623Z,21.6
2022-07-27T10:18:08.611Z,21.7
2022-07-27T10:20:05.739Z,21.6
2022-07-27T10:22:02.143Z,21.6
2022-07-27T10:24:06.233Z,21.4
2022-07-27T10:26:12.569Z,21.3
2022-07-27T10:28:12.734Z,21.1
2022-07-27T10:30:05.363Z,21.1
2022-07-27T10:32:02.247Z,21.0
2022-07-27T10:34:03.949Z,20.9
2022-07-27T10:36:03.711Z,20.8
2022-07-27T10:38:14.859Z,20.7
2022-07-27T10:40:14.288Z,20.6
2022-07-27T10:42:21.199Z,20.6
2022-07-27T10:44:21.251Z,20.4
2022-07-27T10:46:02.989Z,20.4
2022-07-27T10:48:02.642Z,20.4
2022-07-27T10:50:20.109Z,20.3
2022-07-27T10:52:02.645Z,20.3
2022-07-27T10:54:19.552Z,20.3
2022-07-27T10:56:03.555Z,20.3
2022-07-27T10:58:21.697Z,20.2
2022-07-27T11:00:13.346Z,20.2
2022-07-27T11:02:02.197Z,20.2
2022-07-27T11:04:09.826Z,20.1
2022-07-27T11:06:30.915Z,20.1
2022-07-27T11:08:35.235Z,20.1
2022-07-27T11:10:04.729Z,20.1
2022-07-27T11:12:03.195Z,20.0
2022-07-27T11:14:02.167Z,19.9
2022-07-27T11:16:24.387Z,20.0
2022-07-27T11:18:05.024Z,19.9
2022-07-27T11:20:03.523Z,19.9
2022-07-27T11:22:04.693Z,19.9
2022-07-27T11:24:05.629Z,19.9
2022-07-27T11:26:03.005Z,19.9
2022-07-27T11:28:07.014Z,19.9
2022-07-27T11:30:02.355Z,19.9
2022-07-27T11:32:03.779Z,19.9
2022-07-27T11:34:02.822Z,19.9
2022-07-27T11:36:04.345Z,19.8
2022-07-27T11:38:05.460Z,19.8
2022-07-27T11:40:03.980Z,19.8
2022-07-27T11:42:08.537Z,19.8
2022-07-27T11:44:04.027Z,19.8
2022-07-27T11:46:13.186Z,19.8
2022-07-27T11:48:02.129Z,19.8
2022-07-27T11:50:05.281Z,19.8
2022-07-27T11:52:04.556Z,19.8
2022-07-27T11:54:05.420Z,19.8
2022-07-27T11:56:02.173Z,19.8
2022-07-27T11:58:04.344Z,19.8
2022-07-27T12:00:02.789Z,19.8
2022-07-27T12:02:05.167Z,19.7
2022-07-27T12:04:14.919Z,19.8
2022-07-27T12:06:02.785Z,19.7
2022-07-27T12:08:02.191Z,19.7
2022-07-27T12:10:06.619Z,19.7
2022-07-27T12:12:10.326Z,19.7
2022-07-27T12:14:12.227Z,19.7
2022-07-27T12:16:02.418Z,19.7
2022-07-27T12:18:02.518Z,19.7
2022-07-27T12:20:05.434Z,19.7
2022-07-27T12:22:03.637Z,19.6
2022-07-27T12:24:02.936Z,19.6
2022-07-27T12:26:17.395Z,19.6
2022-07-27T12:28:05.275Z,19.6
2022-07-27T12:30:09.042Z,19.6
2022-07-27T12:32:04.124Z,19.6
2022-07-27T12:34:06.411Z,19.6
2022-07-27T12:36:04.282Z,19.6
2022-07-27T12:38:04.536Z,19.6
2022-07-27T12:40:11.916Z,19.5
2022-07-27T12:42:05.244Z,19.5
2022-07-27T12:44:07.704Z,19.5
2022-07-27T12:46:12.050Z,19.5
2022-07-27T12:48:09.137Z,19.5
2022-07-27T12:50:07.156Z,19.4
2022-07-27T12:52:06.752Z,19.4
2022-07-27T12:54:02.309Z,19.4
2022-07-27T12:56:06.028Z,19.4
2022-07-27T12:58:03.403Z,19.4
2022-07-27T13:00:02.412Z,19.4
2022-07-27T13:02:02.913Z,19.4
2022-07-27T13:04:02.163Z,19.4
2022-07-27T13:06:02.296Z,19.4
2022-07-27T13:08:04.197Z,19.4
2022-07-27T13:10:04.198Z,19.4
2022-07-27T13:12:03.595Z,19.4
2022-07-27T13:14:02.765Z,19.4
2022-07-27T13:16:02.732Z,19.4
2022-07-27T13:18:03.735Z,19.4
2022-07-27T13:20:02.356Z,19.4
2022-07-27T13:22:02.563Z,19.4
2022-07-27T13:24:02.568Z,19.4
2022-07-27T13:26:02.664Z,19.4
2022-07-27T13:28:03.907Z,19.4
2022-07-27T13:30:02.896Z,19.4
2022-07-27T13:32:03.174Z,19.4
2022-07-27T13:34:02.166Z,19.4
2022-07-27T13:36:04.668Z,19.4
2022-07-27T13:38:02.277Z,19.4
2022-07-27T13:40:02.153Z,19.4
2022-07-27T13:42:02.919Z,19.3
2022-07-27T13:44:03.696Z,19.3
2022-07-27T13:46:02.889Z,19.3
2022-07-27T13:48:02.677Z,19.3
2022-07-27T13:50:03.039Z,19.3
2022-07-27T13:52:02.747Z,19.3
2022-07-27T13:54:02.283Z,19.3
2022-07-27T13:56:02.982Z,19.3
2022-07-27T13:58:02.105Z,19.3
2022-07-27T14:00:02.239Z,19.3
2022-07-27T14:02:03.056Z,19.3
2022-07-27T14:04:05.111Z,19.3
2022-07-27T14:06:02.414Z,19.4
2022-07-27T14:08:03.024Z,19.4
2022-07-27T14:10:11.927Z,19.4
2022-07-27T14:12:02.105Z,19.4
2022-07-27T14:14:03.572Z,19.4
2022-07-27T14:16:02.976Z,19.4
2022-07-27T14:18:02.479Z,19.4
2022-07-27T14:20:02.783Z,19.4
2022-07-27T14:22:02.945Z,19.4
2022-07-27T14:24:02.792Z,19.5
2022-07-27T14:26:04.224Z,19.5
2022-07-27T14:28:02.924Z,19.5
2022-07-27T14:30:02.548Z,19.5
2022-07-27T14:32:02.405Z,19.6
2022-07-27T14:34:02.828Z,19.6
2022-07-27T14:36:02.265Z,19.6
2022-07-27T14:38:02.210Z,19.6
2022-07-27T14:40:04.467Z,19.7
2022-07-27T14:42:02.909Z,19.7
2022-07-27T14:44:02.151Z,19.7
2022-07-27T14:46:02.864Z,19.7
2022-07-27T14:48:02.806Z,19.8
2022-07-27T14:50:02.392Z,19.8
2022-07-27T14:52:02.376Z,19.8
2022-07-27T14:54:03.867Z,19.8
2022-07-27T14:56:02.131Z,19.9
2022-07-27T14:58:03.501Z,20.0
2022-07-27T15:00:09.297Z,20.0
2022-07-27T15:02:03.299Z,20.1
2022-07-27T15:04:02.163Z,20.1
2022-07-27T15:06:03.098Z,20.1
2022-07-27T15:08:02.490Z,20.2
2022-07-27T15:10:04.206Z,20.2
2022-07-27T15:12:03.864Z,20.3
2022-07-27T15:14:03.352Z,20.3
2022-07-27T15:16:02.783Z,20.3
2022-07-27T15:18:02.936Z,20.4
2022-07-27T15:20:03.051Z,20.4
2022-07-27T15:22:02.817Z,20.5
2022-07-27T15:24:02.358Z,20.6
2022-07-27T15:26:02.177Z,20.6
2022-07-27T15:28:03.132Z,20.6
2022-07-27T15:30:03.228Z,20.7
2022-07-27T15:32:02.911Z,20.8
2022-07-27T15:34:02.467Z,20.8
2022-07-27T15:36:03.044Z,20.9
2022-07-27T15:38:02.179Z,21.0
2022-07-27T15:40:12.491Z,21.1
2022-07-27T15:42:03.001Z,21.2
2022-07-27T15:44:02.615Z,21.2
2022-07-27T15:46:02.553Z,21.3
2022-07-27T15:48:02.109Z,21.4
2022-07-27T15:50:03.622Z,21.5
2022-07-27T15:52:02.526Z,21.6
2022-07-27T15:54:02.297Z,21.7
2022-07-27T15:56:02.213Z,21.8
2022-07-27T15:58:02.884Z,21.9
2022-07-27T16:00:04.133Z,22.1
2022-07-27T16:02:02.149Z,22.2
2022-07-27T16:04:02.473Z,22.3
2022-07-27T16:06:03.802Z,22.4
2022-07-27T16:08:03.148Z,22.6
2022-07-27T16:10:03.340Z,22.7
2022-07-27T16:12:02.194Z,22.8
2022-07-27T16:14:02.246Z,22.9
2022-07-27T16:16:12.278Z,23.1
2022-07-27T16:18:02.295Z,23.3
2022-07-27T16:20:03.037Z,23.3
2022-07-27T16:22:03.526Z,23.4
2022-07-27T16:24:02.218Z,23.6
2022-07-27T16:26:05.134Z,23.7
2022-07-27T16:28:02.776Z,23.8
2022-07-27T16:30:04.351Z,23.9
2022-07-27T16:32:03.602Z,24.0
2022-07-27T16:34:15.221Z,24.1
2022-07-27T16:36:02.824Z,24.2
2022-07-27T16:38:02.168Z,24.3
2022-07-27T16:40:02.182Z,24.3
2022-07-27T16:42:02.904Z,24.4
2022-07-27T16:44:02.204Z,24.5
2022-07-27T16:46:02.354Z,24.6
2022-07-27T16:48:02.674Z,24.7
2022-07-27T16:50:02.904Z,24.8
2022-07-27T16:52:02.160Z,24.8
2022-07-27T16:54:03.923Z,24.9
2022-07-27T16:56:02.712Z,25.0
2022-07-27T16:58:02.912Z,25.1
2022-07-27T17:00:05.114Z,25.2
2022-07-27T17:02:02.172Z,25.3
2022-07-27T17:04:02.200Z,25.4
2022-07-27T17:06:05.978Z,25.4
2022-07-27T17:08:02.128Z,25.6
2022-07-27T17:10:02.242Z,25.6
2022-07-27T17:12:02.323Z,25.7
2022-07-27T17:14:02.865Z,25.8
2022-07-27T17:16:03.258Z,25.8
2022-07-27T17:18:03.203Z,25.9
2022-07-27T17:20:03.063Z,26.0
2022-07-27T17:22:02.509Z,26.1
2022-07-27T17:24:02.483Z,26.2
2022-07-27T17:26:02.158Z,26.3
2022-07-27T17:28:02.159Z,26.4
2022-07-27T17:30:03.481Z,26.5
2022-07-27T17:32:02.758Z,26.6
2022-07-27T17:34:02.412Z,26.7
2022-07-27T17:36:03.858Z,26.8
2022-07-27T17:38:06.883Z,26.8
2022-07-27T17:40:02.293Z,26.9
2022-07-27T17:42:02.534Z,26.9
2022-07-27T17:44:02.770Z,27.0
2022-07-27T17:46:02.780Z,27.0
2022-07-27T17:48:02.604Z,27.1
2022-07-27T17:50:04.363Z,27.1
2022-07-27T17:52:02.174Z,27.2
2022-07-27T17:54:03.413Z,27.2
2022-07-27T17:56:04.174Z,27.3
2022-07-27T17:58:02.812Z,27.5
2022-07-27T18:00:02.334Z,27.6
2022-07-27T18:02:03.390Z,27.7
2022-07-27T18:04:02.272Z,27.7
2022-07-27T18:06:02.898Z,27.8
2022-07-27T18:08:02.163Z,27.9
2022-07-27T18:10:03.347Z,28.0
2022-07-27T18:12:02.805Z,28.1
2022-07-27T18:14:02.243Z,28.1
2022-07-27T18:16:02.226Z,28.2
2022-07-27T18:18:04.593Z,28.3
2022-07-27T18:20:02.219Z,28.3
2022-07-27T18:22:02.866Z,28.3
2022-07-27T18:24:03.775Z,28.4
2022-07-27T18:26:02.381Z,28.8
2022-07-27T18:28:02.272Z,29.4
2022-07-27T18:30:03.750Z,29.6
2022-07-27T18:32:02.175Z,29.6
2022-07-27T18:34:03.326Z,29.4
2022-07-27T18:36:02.303Z,29.4
2022-07-27T18:38:04.231Z,29.3
2022-07-27T18:40:03.963Z,29.4
2022-07-27T18:42:03.464Z,29.4
2022-07-27T18:44:02.135Z,29.4
2022-07-27T18:46:02.645Z,29.4
2022-07-27T18:48:02.438Z,29.6
2022-07-27T18:50:03.128Z,30.2
2022-07-27T18:52:02.179Z,30.8
2022-07-27T18:54:03.361Z,31.2
2022-07-27T18:56:02.185Z,31.3
2022-07-27T18:58:03.542Z,31.1
2022-07-27T19:00:02.176Z,30.9
2022-07-27T19:02:02.608Z,30.7
2022-07-27T19:04:02.745Z,30.5
2022-07-27T19:06:03.426Z,30.4
2022-07-27T19:08:03.283Z,30.4
2022-07-27T19:10:02.983Z,30.6
2022-07-27T19:12:09.094Z,31.0
2022-07-27T19:14:02.171Z,31.2
2022-07-27T19:16:02.191Z,31.3
2022-07-27T19:18:03.344Z,31.2
2022-07-27T19:20:02.308Z,31.1
2022-07-27T19:22:02.744Z,31.1
2022-07-27T19:24:02.096Z,31.0
2022-07-27T19:26:02.184Z,31.1
2022-07-27T19:28:02.823Z,31.4
2022-07-27T19:30:02.908Z,31.7
2022-07-27T19:32:02.724Z,31.9
2022-07-27T19:34:03.402Z,32.1
2022-07-27T19:36:02.243Z,32.3
2022-07-27T19:38:02.898Z,32.3
2022-07-27T19:40:20.128Z,32.4
2022-07-27T19:42:02.374Z,32.3
2022-07-27T19:44:03.524Z,32.2
2022-07-27T19:46:03.988Z,31.9
2022-07-27T19:48:04.252Z,31.7
2022-07-27T19:50:02.321Z,31.8
2022-07-27T19:52:03.954Z,31.9
2022-07-27T19:54:02.801Z,32.1
2022-07-27T19:56:02.351Z,32.2
2022-07-27T19:58:02.793Z,32.3
2022-07-27T20:00:03.758Z,32.4
2022-07-27T20:02:02.236Z,32.7
2022-07-27T20:04:06.887Z,32.9
2022-07-27T20:06:02.966Z,33.1
2022-07-27T20:08:02.310Z,33.0
2022-07-27T20:10:02.408Z,32.8
2022-07-27T20:12:03.217Z,32.6
2022-07-27T20:14:02.689Z,32.7
2022-07-27T20:16:02.632Z,32.9
2022-07-27T20:18:02.380Z,33.2
2022-07-27T20:20:02.914Z,33.2
2022-07-27T20:22:02.826Z,33.1
2022-07-27T20:24:02.880Z,33.2
2022-07-27T20:26:02.953Z,33.3
2022-07-27T20:28:02.695Z,33.3
2022-07-27T20:30:02.380Z,33.5
2022-07-27T20:32:02.288Z,33.7
2022-07-27T20:34:03.518Z,33.8
2022-07-27T20:36:02.256Z,33.8
2022-07-27T20:38:02.862Z,33.8
2022-07-27T20:40:04.658Z,33.9
2022-07-27T20:42:02.357Z,33.9
2022-07-27T20:44:02.372Z,33.9
2022-07-27T20:46:03.198Z,34.1
2022-07-27T20:48:02.941Z,34.0
2022-07-27T20:50:02.833Z,34.0
2022-07-27T20:52:02.746Z,34.1
2022-07-27T20:54:04.035Z,34.1
2022-07-27T20:56:02.205Z,34.1
2022-07-27T20:58:02.410Z,34.2
2022-07-27T21:00:03.257Z,34.3
2022-07-27T21:02:02.835Z,34.4
2022-07-27T21:04:02.692Z,34.4
2022-07-27T21:06:03.688Z,34.4
2022-07-27T21:08:02.726Z,34.4
2022-07-27T21:10:02.859Z,34.3
2022-07-27T21:12:02.756Z,34.3
2022-07-27T21:14:02.156Z,34.2
2022-07-27T21:16:02.266Z,34.2
2022-07-27T21:18:03.137Z,34.2
2022-07-27T21:20:02.165Z,34.2
2022-07-27T21:22:03.420Z,34.3
2022-07-27T21:24:11.897Z,34.4
2022-07-27T21:26:02.189Z,34.4
2022-07-27T21:28:02.125Z,34.6
2022-07-27T21:30:02.713Z,34.6
2022-07-27T21:32:02.190Z,34.7
2022-07-27T21:34:02.918Z,34.7
2022-07-27T21:36:02.202Z,34.7
2022-07-27T21:38:04.228Z,34.7
2022-07-27T21:40:02.141Z,34.7
2022-07-27T21:42:02.660Z,34.7
2022-07-27T21:44:02.188Z,34.7
2022-07-27T21:46:02.982Z,34.7
2022-07-27T21:48:02.200Z,34.7
2022-07-27T21:50:02.716Z,34.8
2022-07-27T21:52:02.367Z,34.8
2022-07-27T21:54:03.747Z,34.8
2022-07-27T21:56:02.474Z,34.8
2022-07-27T21:58:02.995Z,34.8
2022-07-27T22:00:03.658Z,34.7
2022-07-27T22:02:02.266Z,34.8
2022-07-27T22:04:02.218Z,34.9
2022-07-27T22:06:03.022Z,34.9
2022-07-27T22:08:03.324Z,34.9
2022-07-27T22:10:02.532Z,34.9
2022-07-27T22:12:02.203Z,35.1
2022-07-27T22:14:03.100Z,35.2
2022-07-27T22:16:03.131Z,35.3
2022-07-27T22:18:02.815Z,35.3
2022-07-27T22:20:02.654Z,35.3
2022-07-27T22:22:03.424Z,35.2
2022-07-27T22:24:02.365Z,35.2
2022-07-27T22:26:02.201Z,35.1
2022-07-27T22:28:02.165Z,35.0
2022-07-27T22:30:04.755Z,34.9
2022-07-27T22:32:02.451Z,35.0
2022-07-27T22:34:02.980Z,35.2
2022-07-27T22:36:02.674Z,35.2
2022-07-27T22:38:02.993Z,35.3
2022-07-27T22:40:02.784Z,35.3
2022-07-27T22:42:02.589Z,35.3
2022-07-27T22:44:02.254Z,35.4
2022-07-27T22:46:03.302Z,35.5
2022-07-27T22:48:02.112Z,35.6
2022-07-27T22:50:02.920Z,35.7
2022-07-27T22:52:02.937Z,35.7
2022-07-27T22:54:02.289Z,35.4
2022-07-27T22:56:02.706Z,35.2
2022-07-27T22:58:03.317Z,35.0
2022-07-27T23:00:02.363Z,34.9
2022-07-27T23:02:03.219Z,34.8
2022-07-27T23:04:03.319Z,34.8
2022-07-27T23:06:03.386Z,34.7
2022-07-27T23:08:02.786Z,34.8
2022-07-27T23:10:03.287Z,34.9
2022-07-27T23:12:02.361Z,34.9
2022-07-27T23:14:02.184Z,35.1
2022-07-27T23:16:02.434Z,35.1
2022-07-27T23:18:02.305Z,35.2
2022-07-27T23:20:02.182Z,35.2
2022-07-27T23:22:02.769Z,35.2
2022-07-27T23:24:03.021Z,35.2
2022-07-27T23:26:02.251Z,35.2
2022-07-27T23:28:02.379Z,35.1
2022-07-27T23:30:02.951Z,35.0
2022-07-27T23:32:02.995Z,35.1
2022-07-27T23:34:02.182Z,35.2
2022-07-27T23:36:05.867Z,35.2
2022-07-27T23:38:02.387Z,35.2
2022-07-27T23:40:03.167Z,35.3
2022-07-27T23:42:03.027Z,35.3
2022-07-27T23:44:02.938Z,35.3
2022-07-27T23:46:02.569Z,35.3
2022-07-27T23:48:02.310Z,35.4
2022-07-27T23:50:02.631Z,35.3
2022-07-27T23:52:03.481Z,35.2
2022-07-27T23:54:02.323Z,35.2
2022-07-27T23:56:02.809Z,35.2
2022-07-27T23:58:02.787Z,35.2
